Time;durP1;ratioP1;P1;durP2;ratioP2;P2;SDS_P1;SDS_P2;PMS_P1;PMS_P2;Temp;Humidity;BMP_temperature;BMP_pressure;BME280_temperature;BME280_humidity;BME280_pressure;Samples;Min_cycle;Max_cycle;Signal;HPM_P1;HPM_P2
2021/01/21 00:01:42;;;;;;;;;;;;;;;4.43;70.17;97371.61;1742460;81;20301;-88
2021/01/21 00:04:31;;;;;;;;;;;;;;;4.41;70.19;97365.25;1737626;81;24696;-88
2021/01/21 00:07:17;;;;;;;;;;;;;;;4.38;70.22;97364.13;1737559;81;23132;-89
2021/01/21 00:10:03;;;;;;;;;;;;;;;4.35;70.22;97370.80;1784360;79;26199;-89
2021/01/21 00:12:50;;;;;;;;;;;;;;;4.34;70.25;97371.73;1789436;79;25497;-89
2021/01/21 00:15:37;;;;;;;;;;;;;;;4.35;70.29;97365.63;1745625;81;20272;-89
2021/01/21 00:18:23;;;;;;;;;;;;;;;4.36;70.29;97367.75;1746502;81;24923;-88
2021/01/21 00:21:11;;;;;;;;;;;;;;;4.39;70.32;97359.32;1791191;79;22213;-89
2021/01/21 00:23:58;;;;;;;;;;;;;;;4.39;70.34;97363.20;1787636;79;26167;-89
2021/01/21 00:26:47;;;;;;;;;;;;;;;4.40;70.38;97356.27;1792482;79;24689;-89
2021/01/21 00:29:33;;;;;;;;;;;;;;;4.43;70.41;97342.66;1793029;79;20198;-89
2021/01/21 00:32:20;;;;;;;;;;;;;;;4.42;70.42;97342.28;1799637;79;24700;-91
2021/01/21 00:35:09;;;;;;;;;;;;;;;4.45;70.46;97345.99;1737459;82;22271;-91
2021/01/21 00:37:55;;;;;;;;;;;;;;;4.46;70.48;97352.84;1792790;79;26935;-91
2021/01/21 00:40:41;;;;;;;;;;;;;;;4.45;70.50;97343.86;1793711;79;24507;-90
2021/01/21 00:43:27;;;;;;;;;;;;;;;4.45;70.49;97337.38;1794099;79;20532;-90
2021/01/21 00:46:15;;;;;;;;;;;;;;;4.47;70.50;97342.02;1793036;79;24690;-91
2021/01/21 00:49:01;;;;;;;;;;;;;;;4.50;70.52;97350.42;1791646;79;22128;-90
2021/01/21 00:51:47;;;;;;;;;;;;;;;4.53;70.53;97346.78;1785344;79;26171;-90
2021/01/21 00:54:34;;;;;;;;;;;;;;;4.54;70.54;97337.62;1793186;79;24646;-91
2021/01/21 00:57:21;;;;;;;;;;;;;;;4.54;70.56;97329.86;1796029;79;20199;-90
2021/01/21 01:00:10;;;;;;;;;;;;;;;4.53;70.57;97334.67;1792686;79;24585;-90
2021/01/21 01:02:56;;;;;;;;;;;;;;;4.52;70.57;97333.03;1786286;79;22949;-91
2021/01/21 01:05:44;;;;;;;;;;;;;;;4.51;70.55;97337.84;1792225;79;26111;-90
2021/01/21 01:08:29;;;;;;;;;;;;;;;4.50;70.59;97335.34;1788748;79;24683;-90
2021/01/21 01:11:19;;;;;;;;;;;;;;;4.48;70.59;97336.72;1789587;79;20211;-91
2021/01/21 01:14:04;;;;;;;;;;;;;;;4.50;70.59;97333.58;1793628;79;24774;-90
2021/01/21 01:16:57;;;;;;;;;;;;;;;4.50;70.60;97336.62;1739611;81;22347;-90
2021/01/21 01:19:43;;;;;;;;;;;;;;;4.48;70.59;97323.77;1731837;80;27146;-88
2021/01/21 01:22:30;;;;;;;;;;;;;;;4.48;70.60;97326.36;1789852;79;24587;-87
2021/01/21 01:25:18;;;;;;;;;;;;;;;4.49;70.61;97328.02;1793515;79;20255;-87
2021/01/21 01:28:09;;;;;;;;;;;;;;;4.52;70.63;97327.84;1790125;79;25528;-87
2021/01/21 01:30:57;;;;;;;;;;;;;;;4.57;70.64;97322.38;1793110;79;22231;-88
2021/01/21 01:33:43;;;;;;;;;;;;;;;4.58;70.64;97330.52;1799446;79;26097;-88
2021/01/21 01:36:29;;;;;;;;;;;;;;;4.56;70.66;97322.00;1787644;79;24630;-89
2021/01/21 01:39:19;;;;;;;;;;;;;;;4.55;70.67;97318.58;1784504;79;20467;-89
2021/01/21 01:42:08;;;;;;;;;;;;;;;4.57;70.66;97317.19;1789804;79;24665;-89
2021/01/21 01:44:53;;;;;;;;;;;;;;;4.56;70.68;97305.16;1792378;79;22153;-89
2021/01/21 01:47:40;;;;;;;;;;;;;;;4.57;70.67;97310.71;1791499;79;27158;-89
2021/01/21 01:50:26;;;;;;;;;;;;;;;4.55;70.68;97308.21;1793773;79;23998;-89
2021/01/21 01:53:12;;;;;;;;;;;;;;;4.52;70.68;97307.12;1790979;79;20272;-89
2021/01/21 01:55:58;;;;;;;;;;;;;;;4.55;70.70;97299.61;1794967;79;24722;-89
2021/01/21 01:58:44;;;;;;;;;;;;;;;4.54;70.70;97303.95;1792780;79;22346;-89
2021/01/21 02:01:30;;;;;;;;;;;;;;;4.54;70.71;97303.95;1789492;79;26093;-90
2021/01/21 02:04:16;;;;;;;;;;;;;;;4.53;70.73;97295.80;1792906;79;24567;-90
2021/01/21 02:07:02;;;;;;;;;;;;;;;4.55;70.73;97301.73;1794900;79;20247;-90
2021/01/21 02:09:50;;;;;;;;;;;;;;;4.53;70.75;97295.80;1745122;80;25828;-90
2021/01/21 02:12:36;;;;;;;;;;;;;;;4.50;70.75;97302.49;1739852;81;22161;-90
2021/01/21 02:15:22;;;;;;;;;;;;;;;4.53;70.74;97302.28;1743192;81;26079;-90
2021/01/21 02:18:07;;;;;;;;;;;;;;;4.56;70.77;97296.92;1739100;81;24600;-91
2021/01/21 02:20:53;;;;;;;;;;;;;;;4.57;70.78;97293.88;1730373;81;20362;-90
2021/01/21 02:23:39;;;;;;;;;;;;;;;4.59;70.77;97286.81;1739416;81;24866;-90
2021/01/21 02:26:25;;;;;;;;;;;;;;;4.56;70.80;97276.20;1739244;81;22072;-90
2021/01/21 02:29:12;;;;;;;;;;;;;;;4.57;70.80;97280.92;1742205;81;27165;-89
2021/01/21 02:31:59;;;;;;;;;;;;;;;4.57;70.80;97286.94;1739376;81;25417;-89
2021/01/21 02:34:46;;;;;;;;;;;;;;;4.62;70.81;97285.34;1733313;82;20267;-89
2021/01/21 02:37:32;;;;;;;;;;;;;;;4.66;70.79;97280.78;1735210;82;24669;-89
2021/01/21 02:40:18;;;;;;;;;;;;;;;4.71;70.81;97285.20;1743119;80;23048;-89
2021/01/21 02:43:04;;;;;;;;;;;;;;;4.72;70.81;97286.40;1733353;82;26133;-89
2021/01/21 02:45:51;;;;;;;;;;;;;;;4.70;70.84;97290.84;1731879;82;24692;-89
2021/01/21 02:48:37;;;;;;;;;;;;;;;4.69;70.85;97299.54;1711365;82;20277;-89
2021/01/21 02:51:23;;;;;;;;;;;;;;;4.69;70.84;97295.65;1737917;81;24701;-89
2021/01/21 02:54:09;;;;;;;;;;;;;;;4.70;70.85;97293.89;1741063;81;22385;-89
2021/01/21 02:56:55;;;;;;;;;;;;;;;4.72;70.86;97294.17;1745103;81;26185;-89
2021/01/21 02:59:42;;;;;;;;;;;;;;;4.75;70.87;97286.19;1729614;82;25627;-89
2021/01/21 03:02:28;;;;;;;;;;;;;;;4.77;70.88;97285.63;1739813;81;20333;-89
2021/01/21 03:05:15;;;;;;;;;;;;;;;4.83;70.87;97285.70;1741099;81;24946;-90
2021/01/21 03:08:01;;;;;;;;;;;;;;;4.81;70.89;97281.07;1724608;82;22197;-90
2021/01/21 03:10:47;;;;;;;;;;;;;;;4.78;70.90;97285.17;1730735;81;26253;-90
2021/01/21 03:13:33;;;;;;;;;;;;;;;4.80;70.91;97290.61;1694538;84;24645;-89
2021/01/21 03:16:19;;;;;;;;;;;;;;;4.81;70.90;97287.09;1765685;80;20470;-89
2021/01/21 03:19:10;;;;;;;;;;;;;;;4.77;70.91;97286.94;1764972;81;24733;-89
2021/01/21 03:21:56;;;;;;;;;;;;;;;4.80;70.90;97294.98;1764934;80;22231;-89
2021/01/21 03:24:43;;;;;;;;;;;;;;;4.83;70.92;97294.31;1766719;80;26133;-89
2021/01/21 03:27:29;;;;;;;;;;;;;;;4.84;70.92;97294.69;1726604;82;24674;-88
2021/01/21 03:30:19;;;;;;;;;;;;;;;4.85;70.93;97294.22;1673465;84;20404;-89
2021/01/21 03:33:05;;;;;;;;;;;;;;;4.84;70.94;97279.59;1764474;80;24981;-90
2021/01/21 03:35:53;;;;;;;;;;;;;;;4.83;70.95;97281.81;1767200;80;23049;-90
2021/01/21 03:38:39;;;;;;;;;;;;;;;4.84;70.94;97279.59;1722307;82;26322;-90
2021/01/21 03:41:24;;;;;;;;;;;;;;;4.85;70.96;97279.97;1693296;84;24638;-90
2021/01/21 03:44:11;;;;;;;;;;;;;;;4.80;70.97;97276.34;1726275;82;20569;-91
2021/01/21 03:47:00;;;;;;;;;;;;;;;4.80;70.97;97279.44;1698711;84;24738;-91
2021/01/21 03:49:46;;;;;;;;;;;;;;;4.77;70.98;97275.73;1765661;80;22095;-90
2021/01/21 03:52:32;;;;;;;;;;;;;;;4.75;70.99;97271.10;1761683;81;26407;-90
2021/01/21 03:55:18;;;;;;;;;;;;;;;4.71;71.00;97275.66;1761706;81;24704;-90
2021/01/21 03:58:04;;;;;;;;;;;;;;;4.65;71.01;97274.77;1733188;82;20446;-90
2021/01/21 04:00:51;;;;;;;;;;;;;;;4.66;71.02;97275.59;1766508;80;24657;-90
2021/01/21 04:03:36;;;;;;;;;;;;;;;4.67;71.01;97268.19;1760100;80;23398;-90
2021/01/21 04:06:22;;;;;;;;;;;;;;;4.68;71.04;97265.97;1764651;81;26422;-90
2021/01/21 04:09:08;;;;;;;;;;;;;;;4.68;71.07;97271.98;1766178;80;24789;-90
2021/01/21 04:11:55;;;;;;;;;;;;;;;4.69;71.10;97272.33;1765947;81;20347;-90
2021/01/21 04:14:41;;;;;;;;;;;;;;;4.68;71.13;97265.97;1762955;80;24673;-90
2021/01/21 04:17:27;;;;;;;;;;;;;;;4.62;71.12;97258.97;1765952;80;22225;-90
2021/01/21 04:20:14;;;;;;;;;;;;;;;4.65;71.16;97256.63;1766204;80;26350;-90
2021/01/21 04:23:00;;;;;;;;;;;;;;;4.69;71.18;97259.38;1764671;80;25532;-90
2021/01/21 04:25:46;;;;;;;;;;;;;;;4.73;71.19;97254.38;1762334;81;20268;-90
2021/01/21 04:28:33;;;;;;;;;;;;;;;4.75;71.23;97249.91;1763722;80;24680;-90
2021/01/21 04:31:24;;;;;;;;;;;;;;;4.74;71.24;97253.92;1765958;80;22118;-90
2021/01/21 04:34:10;;;;;;;;;;;;;;;4.72;71.25;97245.40;1765421;81;26370;-90
2021/01/21 04:36:59;;;;;;;;;;;;;;;4.73;71.29;97247.06;1730920;82;24495;-89
2021/01/21 04:39:45;;;;;;;;;;;;;;;4.74;71.33;97253.45;1762750;80;20272;-89
2021/01/21 04:42:31;;;;;;;;;;;;;;;4.72;71.33;97243.64;1763103;80;24798;-90
2021/01/21 04:45:19;;;;;;;;;;;;;;;4.70;71.35;97233.00;1762836;80;22318;-90
2021/01/21 04:48:06;;;;;;;;;;;;;;;4.67;71.37;97235.80;1765986;80;26126;-90
2021/01/21 04:50:52;;;;;;;;;;;;;;;4.65;71.37;97225.53;1763660;81;24771;-89
2021/01/21 04:53:38;;;;;;;;;;;;;;;4.68;71.40;97234.87;1764619;80;20396;-89
2021/01/21 04:56:24;;;;;;;;;;;;;;;4.72;71.42;97233.73;1763100;80;24744;-90
2021/01/21 04:59:10;;;;;;;;;;;;;;;4.71;71.44;97235.96;1764576;80;22095;-89
2021/01/21 05:01:56;;;;;;;;;;;;;;;4.69;71.47;97228.77;1764043;80;26226;-90
2021/01/21 05:04:42;;;;;;;;;;;;;;;4.70;71.48;97240.77;1766474;80;24633;-89
2021/01/21 05:07:28;;;;;;;;;;;;;;;4.66;71.51;97252.27;1763556;80;20370;-89
2021/01/21 05:10:14;;;;;;;;;;;;;;;4.66;71.54;97245.33;1772534;79;23900;-89
2021/01/21 05:13:06;;;;;;;;;;;;;;;4.63;71.53;97236.02;1792757;79;20185;-90
2021/01/21 05:15:52;;;;;;;;;;;;;;;4.66;71.57;97256.16;1792081;79;26106;-90
2021/01/21 05:18:38;;;;;;;;;;;;;;;4.64;71.58;97253.20;1785380;79;24585;-89
2021/01/21 05:21:24;;;;;;;;;;;;;;;4.59;71.60;97245.36;1794624;79;20272;-90
2021/01/21 05:24:10;;;;;;;;;;;;;;;4.60;71.63;97260.81;1788868;79;24696;-90
2021/01/21 05:26:57;;;;;;;;;;;;;;;4.62;71.65;97251.19;1792734;79;22143;-91
2021/01/21 05:29:43;;;;;;;;;;;;;;;4.67;71.65;97251.34;1742973;81;26238;-90
2021/01/21 05:32:30;;;;;;;;;;;;;;;4.66;71.69;97248.39;1740194;81;24755;-90
2021/01/21 05:35:16;;;;;;;;;;;;;;;4.62;71.71;97249.90;1731256;80;20619;-89
2021/01/21 05:38:03;;;;;;;;;;;;;;;4.60;71.73;97238.79;1730919;80;24907;-90
2021/01/21 05:40:49;;;;;;;;;;;;;;;4.60;71.73;97245.27;1721839;82;23120;-90
2021/01/21 05:43:35;;;;;;;;;;;;;;;4.61;71.77;97246.10;1742167;81;26317;-89
2021/01/21 05:46:20;;;;;;;;;;;;;;;4.60;71.81;97229.72;1732992;82;24633;-90
2021/01/21 05:49:08;;;;;;;;;;;;;;;4.63;71.81;97230.00;1707401;82;20306;-89
2021/01/21 05:51:53;;;;;;;;;;;;;;;4.62;71.86;97242.13;1745323;81;24703;-89
2021/01/21 05:54:39;;;;;;;;;;;;;;;4.61;71.87;97230.09;1741803;81;22200;-89
2021/01/21 05:57:25;;;;;;;;;;;;;;;4.59;71.88;97235.83;1740150;82;26098;-89
2021/01/21 06:00:11;;;;;;;;;;;;;;;4.62;71.90;97240.00;1745347;81;25530;-89
2021/01/21 06:02:57;;;;;;;;;;;;;;;4.68;71.92;97238.77;1708647;82;20191;-90
2021/01/21 06:05:43;;;;;;;;;;;;;;;4.68;71.93;97238.30;1733677;81;24858;-89
2021/01/21 06:08:29;;;;;;;;;;;;;;;4.66;71.96;97249.22;1742224;81;22161;-88
2021/01/21 06:11:17;;;;;;;;;;;;;;;4.70;71.98;97243.36;1739408;81;26263;-88
2021/01/21 06:14:04;;;;;;;;;;;;;;;4.70;71.98;97248.08;1743282;81;25495;-88
2021/01/21 06:16:49;;;;;;;;;;;;;;;4.73;71.99;97247.06;1711609;82;20490;-88
2021/01/21 06:19:36;;;;;;;;;;;;;;;4.71;72.00;97243.27;1775666;79;24864;-88
2021/01/21 06:22:22;;;;;;;;;;;;;;;4.71;72.04;97243.73;1782381;79;22142;-88
2021/01/21 06:25:08;;;;;;;;;;;;;;;4.66;72.05;97246.62;1777788;79;26108;-89
2021/01/21 06:27:54;;;;;;;;;;;;;;;4.65;72.05;97244.97;1779238;79;25562;-88
2021/01/21 06:30:40;;;;;;;;;;;;;;;4.67;72.05;97243.58;1779989;79;20427;-89
2021/01/21 06:33:27;;;;;;;;;;;;;;;4.68;72.06;97251.27;1777383;79;25564;-88
2021/01/21 06:36:15;;;;;;;;;;;;;;;4.68;72.08;97253.02;1776388;79;22250;-87
2021/01/21 06:39:00;;;;;;;;;;;;;;;4.69;72.09;97252.09;1777707;79;26815;-88
2021/01/21 06:41:49;;;;;;;;;;;;;;;4.71;72.11;97259.28;1779859;79;24856;-88
2021/01/21 06:44:36;;;;;;;;;;;;;;;4.73;72.13;97261.32;1740655;81;20430;-87
2021/01/21 06:47:21;;;;;;;;;;;;;;;4.71;72.14;97260.11;1741872;81;24901;-87
2021/01/21 06:50:12;;;;;;;;;;;;;;;4.71;72.16;97265.76;1743641;81;22126;-87
2021/01/21 06:52:58;;;;;;;;;;;;;;;4.71;72.16;97265.76;1744213;81;26126;-88
2021/01/21 06:55:45;;;;;;;;;;;;;;;4.73;72.17;97265.20;1745058;81;24615;-87
2021/01/21 06:58:31;;;;;;;;;;;;;;;4.75;72.19;97258.98;1778812;79;20519;-89
2021/01/21 07:01:17;;;;;;;;;;;;;;;4.75;72.21;97266.75;1741288;81;24861;-90
2021/01/21 07:04:03;;;;;;;;;;;;;;;4.74;72.22;97269.00;1779884;79;22303;-89
2021/01/21 07:06:37;;;;;;;;;;;;;;;4.77;72.22;97267.95;1778328;78;26092;-91
2021/01/21 07:09:24;;;;;;;;;;;;;;;4.81;72.23;97264.23;1780188;79;24591;-90
2021/01/21 07:12:10;;;;;;;;;;;;;;;4.86;72.24;97264.29;1740871;81;20291;-88
2021/01/21 07:14:56;;;;;;;;;;;;;;;4.86;72.27;97257.81;1726645;81;24696;-90
2021/01/21 07:17:41;;;;;;;;;;;;;;;4.88;72.28;97276.70;1743997;81;22101;-90
2021/01/21 07:20:27;;;;;;;;;;;;;;;4.91;72.27;97268.70;1731965;82;26191;-87
2021/01/21 07:23:14;;;;;;;;;;;;;;;4.95;72.25;97266.77;1738431;81;24818;-87
2021/01/21 07:26:00;;;;;;;;;;;;;;;4.98;72.28;97265.25;1736724;81;20533;-89
2021/01/21 07:28:46;;;;;;;;;;;;;;;5.02;72.28;97266.70;1740352;81;24741;-87
2021/01/21 07:31:32;;;;;;;;;;;;;;;5.07;72.28;97263.83;1737937;81;22011;-88
2021/01/21 07:34:20;;;;;;;;;;;;;;;5.05;72.28;97266.52;1731119;81;26292;-90
2021/01/21 07:37:08;;;;;;;;;;;;;;;5.11;72.26;97263.98;1709450;83;24797;-87
2021/01/21 07:39:54;;;;;;;;;;;;;;;5.11;72.26;97271.76;1699638;83;20260;-88
2021/01/21 07:42:41;;;;;;;;;;;;;;;5.11;72.26;97267.41;1716520;83;24750;-90
2021/01/21 07:45:34;;;;;;;;;;;;;;;5.10;72.25;97263.14;1710879;82;22076;-91
2021/01/21 07:48:20;;;;;;;;;;;;;;;5.14;72.24;97262.00;1713862;82;27088;-88
2021/01/21 07:51:06;;;;;;;;;;;;;;;5.20;72.24;97264.66;1714040;81;25477;-87
2021/01/21 07:53:52;;;;;;;;;;;;;;;5.21;72.22;97255.48;1714939;81;21119;-88
2021/01/21 07:56:42;;;;;;;;;;;;;;;5.23;72.21;97247.14;1718372;81;24828;-87
2021/01/21 07:59:28;;;;;;;;;;;;;;;5.27;72.20;97233.02;1712589;81;22082;-87
2021/01/21 08:02:14;;;;;;;;;;;;;;;5.28;72.18;97216.53;1712667;82;26283;-87
2021/01/21 08:05:00;;;;;;;;;;;;;;;5.32;72.17;97210.20;1712088;83;24628;-87
2021/01/21 08:07:46;;;;;;;;;;;;;;;5.36;72.16;97205.16;1716643;82;20329;-89
2021/01/21 08:10:32;;;;;;;;;;;;;;;5.38;72.12;97205.89;1712767;82;24916;-87
2021/01/21 08:13:19;;;;;;;;;;;;;;;5.41;72.10;97197.88;1715359;82;22075;-90
2021/01/21 08:16:05;;;;;;;;;;;;;;;5.43;72.09;97194.73;1710074;82;26358;-90
2021/01/21 08:18:51;;;;;;;;;;;;;;;5.45;72.05;97181.16;1715434;82;24135;-89
2021/01/21 08:21:38;;;;;;;;;;;;;;;5.48;72.02;97181.43;1713429;82;20300;-89
2021/01/21 08:24:25;;;;;;;;;;;;;;;5.50;72.00;97183.47;1710163;83;25008;-89
2021/01/21 08:27:10;;;;;;;;;;;;;;;5.51;71.97;97179.11;1715499;81;22425;-89
2021/01/21 08:29:57;;;;;;;;;;;;;;;5.51;71.95;97172.13;1712064;81;26160;-89
2021/01/21 08:32:43;;;;;;;;;;;;;;;5.53;71.93;97170.73;1719704;81;24632;-87
2021/01/21 08:35:29;;;;;;;;;;;;;;;5.56;71.88;97180.45;1722065;83;20338;-87
2021/01/21 08:38:15;;;;;;;;;;;;;;;5.58;71.84;97170.77;1715781;83;24867;-87
2021/01/21 08:41:02;;;;;;;;;;;;;;;5.63;71.82;97174.33;1729828;82;22189;-87
2021/01/21 08:43:48;;;;;;;;;;;;;;;5.65;71.79;97172.47;1730451;81;27127;-87
2021/01/21 08:46:35;;;;;;;;;;;;;;;5.71;71.77;97190.22;1739470;81;24625;-90
2021/01/21 08:49:21;;;;;;;;;;;;;;;5.73;71.74;97186.55;1701168;82;20370;-87
2021/01/21 08:52:07;;;;;;;;;;;;;;;5.75;71.69;97178.20;1707692;83;24996;-90
2021/01/21 08:54:54;;;;;;;;;;;;;;;5.79;71.64;97190.48;1736118;82;22181;-90
2021/01/21 08:57:40;;;;;;;;;;;;;;;5.82;71.60;97179.91;1722585;82;26187;-90
2021/01/21 09:00:26;;;;;;;;;;;;;;;5.84;71.54;97184.50;1731787;82;24631;-90
2021/01/21 09:03:13;;;;;;;;;;;;;;;5.87;71.50;97185.62;1695208;81;20307;-87
2021/01/21 09:05:58;;;;;;;;;;;;;;;5.87;71.46;97177.84;1717369;82;24923;-87
2021/01/21 09:08:44;;;;;;;;;;;;;;;5.87;71.41;97180.44;1714977;82;22180;-87
2021/01/21 09:11:32;;;;;;;;;;;;;;;5.88;71.36;97176.91;1720993;82;26358;-87
2021/01/21 09:14:19;;;;;;;;;;;;;;;5.90;71.32;97178.91;1730998;82;25071;-88
2021/01/21 09:17:04;;;;;;;;;;;;;;;5.93;71.27;97181.30;1728287;82;20421;-88
2021/01/21 09:19:54;;;;;;;;;;;;;;;5.97;71.21;97179.31;1726157;82;24927;-88
2021/01/21 09:22:40;;;;;;;;;;;;;;;5.98;71.19;97181.80;1742901;81;23334;-90
2021/01/21 09:25:14;;;;;;;;;;;;;;;6.00;71.14;97179.91;1732445;81;26149;-88
2021/01/21 09:28:03;;;;;;;;;;;;;;;6.00;71.11;97168.22;1725966;81;24725;-87
2021/01/21 09:30:53;;;;;;;;;;;;;;;6.06;71.08;97180.77;1745349;81;20246;-90
2021/01/21 09:33:39;;;;;;;;;;;;;;;6.12;71.02;97197.21;1742586;81;25123;-89
2021/01/21 09:36:25;;;;;;;;;;;;;;;6.14;70.96;97205.73;1742141;81;22198;-89
2021/01/21 09:39:11;;;;;;;;;;;;;;;6.17;70.89;97207.27;1715144;82;26386;-89
2021/01/21 09:41:57;;;;;;;;;;;;;;;6.24;70.82;97214.52;1742894;80;24590;-87
2021/01/21 09:44:43;;;;;;;;;;;;;;;6.27;70.79;97218.19;1731015;82;20336;-88
2021/01/21 09:47:30;;;;;;;;;;;;;;;6.31;70.72;97221.41;1718598;82;24962;-88
2021/01/21 09:50:16;;;;;;;;;;;;;;;6.30;70.66;97219.28;1718349;82;23057;-87
2021/01/21 09:53:02;;;;;;;;;;;;;;;6.34;70.60;97224.24;1740793;81;26206;-89
2021/01/21 09:55:55;;;;;;;;;;;;;;;6.40;70.57;97219.91;1737135;81;24592;-89
2021/01/21 09:58:40;;;;;;;;;;;;;;;6.42;70.51;97227.13;1713823;82;32546;-89
2021/01/21 10:01:25;;;;;;;;;;;;;;;6.43;70.44;97230.93;1715141;82;24922;-88
2021/01/21 10:04:12;;;;;;;;;;;;;;;6.48;70.42;97242.28;1742777;81;21981;-90
2021/01/21 10:06:58;;;;;;;;;;;;;;;6.52;70.32;97245.02;1739636;82;27008;-90
2021/01/21 10:09:46;;;;;;;;;;;;;;;6.53;70.27;97250.58;1737736;81;24560;-89
2021/01/21 10:12:31;;;;;;;;;;;;;;;6.52;70.22;97244.55;1727254;81;20510;-89
2021/01/21 10:15:18;;;;;;;;;;;;;;;6.56;70.15;97236.05;1746305;81;24994;-90
2021/01/21 10:18:04;;;;;;;;;;;;;;;6.58;70.11;97241.50;1738295;81;22354;-90
2021/01/21 10:20:50;;;;;;;;;;;;;;;6.68;70.06;97237.75;1723257;82;26144;-90
2021/01/21 10:23:36;;;;;;;;;;;;;;;6.71;70.00;97244.84;1726685;82;24687;-90
2021/01/21 10:26:22;;;;;;;;;;;;;;;6.73;69.95;97239.55;1731769;82;20319;-90
2021/01/21 10:29:08;;;;;;;;;;;;;;;6.80;69.92;97247.73;1740598;81;24959;-90
2021/01/21 10:31:55;;;;;;;;;;;;;;;6.85;69.86;97246.45;1729442;80;22356;-90
2021/01/21 10:34:42;;;;;;;;;;;;;;;6.94;69.82;97248.36;1730208;82;26120;-90
2021/01/21 10:37:27;;;;;;;;;;;;;;;7.00;69.74;97244.01;1744075;81;24717;-88
2021/01/21 10:40:17;;;;;;;;;;;;;;;7.04;69.70;97231.12;1724459;81;20301;-88
2021/01/21 10:43:06;;;;;;;;;;;;;;;7.10;69.62;97245.44;1726728;82;25770;-90
2021/01/21 10:45:52;;;;;;;;;;;;;;;7.15;69.58;97232.45;1729453;82;22139;-88
2021/01/21 10:48:38;;;;;;;;;;;;;;;7.22;69.52;97235.42;1731445;82;25723;-88
2021/01/21 10:51:25;;;;;;;;;;;;;;;7.29;69.48;97234.02;1721330;82;24744;-89
2021/01/21 10:54:14;;;;;;;;;;;;;;;7.32;69.40;97232.95;1715163;82;20607;-89
2021/01/21 10:57:00;;;;;;;;;;;;;;;7.36;69.36;97231.80;1723610;82;25976;-90
2021/01/21 10:59:46;;;;;;;;;;;;;;;7.40;69.27;97228.00;1726938;82;22156;-90
2021/01/21 11:02:32;;;;;;;;;;;;;;;7.43;69.17;97225.16;1748825;80;26108;-89
2021/01/21 11:05:19;;;;;;;;;;;;;;;7.41;69.10;97225.29;1743126;81;24704;-90
2021/01/21 11:08:05;;;;;;;;;;;;;;;7.42;69.03;97228.69;1742991;81;20335;-89
2021/01/21 11:10:51;;;;;;;;;;;;;;;7.44;68.97;97220.30;1733709;82;24783;-89
2021/01/21 11:13:40;;;;;;;;;;;;;;;7.44;68.89;97214.62;1743540;81;22130;-89
2021/01/21 11:16:26;;;;;;;;;;;;;;;7.46;68.81;97219.26;1739233;81;26128;-90
2021/01/21 11:19:12;;;;;;;;;;;;;;;7.45;68.69;97216.30;1785599;79;24640;-88
2021/01/21 11:22:00;;;;;;;;;;;;;;;7.49;68.62;97213.80;1791499;79;20993;-89
2021/01/21 11:24:47;;;;;;;;;;;;;;;7.48;68.56;97187.41;1781983;79;24982;-89
2021/01/21 11:27:33;;;;;;;;;;;;;;;7.51;68.46;97191.09;1794090;79;22122;-88
2021/01/21 11:30:19;;;;;;;;;;;;;;;7.53;68.39;97182.67;1789768;79;26138;-90
2021/01/21 11:33:05;;;;;;;;;;;;;;;7.51;68.29;97181.16;1788785;79;24660;-90
2021/01/21 11:36:03;;;;;;;;;;;;;;;7.48;68.19;97179.60;1791873;79;20276;-91
2021/01/21 11:38:47;;;;;;;;;;;;;;;7.50;68.12;97185.53;1789412;79;24302;-89
2021/01/21 11:41:33;;;;;;;;;;;;;;;7.52;68.04;97173.23;1790754;79;22251;-88
2021/01/21 11:44:19;;;;;;;;;;;;;;;7.52;67.99;97168.50;1787739;79;26255;-90
2021/01/21 11:47:05;;;;;;;;;;;;;;;7.50;67.93;97164.70;1799682;79;25042;-89
2021/01/21 11:49:51;;;;;;;;;;;;;;;7.48;67.87;97161.85;1782928;79;20284;-90
2021/01/21 11:52:37;;;;;;;;;;;;;;;7.48;67.78;97169.19;1792127;79;24957;-90
2021/01/21 11:55:22;;;;;;;;;;;;;;;7.48;67.71;97165.76;1793039;79;22189;-91
2021/01/21 11:58:08;;;;;;;;;;;;;;;7.46;67.66;97171.58;1744653;81;27069;-90
2021/01/21 12:00:54;;;;;;;;;;;;;;;7.45;67.61;97168.14;1700318;82;23382;-90
2021/01/21 12:03:43;;;;;;;;;;;;;;;7.47;67.56;97158.92;1792887;79;20460;-90
2021/01/21 12:06:17;;;;;;;;;;;;;;;7.52;67.53;97167.20;1791774;79;25039;-90
2021/01/21 12:08:51;;;;;;;;;;;;;;;7.54;67.47;97161.38;1791682;79;22070;-90
2021/01/21 12:11:37;;;;;;;;;;;;;;;7.61;67.44;97166.47;1794829;79;26141;-90
2021/01/21 12:14:23;;;;;;;;;;;;;;;7.58;67.41;97156.78;1794010;79;24708;-91
2021/01/21 12:17:09;;;;;;;;;;;;;;;7.57;67.35;97153.34;1790504;79;20592;-89
2021/01/21 12:19:56;;;;;;;;;;;;;;;7.60;67.28;97153.09;1790514;79;25078;-90
2021/01/21 12:22:42;;;;;;;;;;;;;;;7.59;67.24;97147.53;1784776;79;22114;-90
2021/01/21 12:25:30;;;;;;;;;;;;;;;7.57;67.18;97135.13;1744732;81;26176;-91
2021/01/21 12:28:16;;;;;;;;;;;;;;;7.51;67.08;97135.13;1733267;81;24620;-90
2021/01/21 12:31:02;;;;;;;;;;;;;;;7.47;67.02;97138.09;1792035;79;20447;-90
2021/01/21 12:33:48;;;;;;;;;;;;;;;7.41;66.97;97137.27;1791581;79;24965;-90
2021/01/21 12:36:37;;;;;;;;;;;;;;;7.36;66.89;97135.50;1783821;79;22375;-89
2021/01/21 12:39:23;;;;;;;;;;;;;;;7.30;66.83;97135.97;1744736;81;26101;-90
2021/01/21 12:42:08;;;;;;;;;;;;;;;7.31;66.77;97135.83;1746406;81;24941;-90
2021/01/21 12:44:54;;;;;;;;;;;;;;;7.35;66.73;97129.94;1734893;82;20355;-90
2021/01/21 12:47:40;;;;;;;;;;;;;;;7.35;66.70;97139.05;1725501;82;24909;-90
2021/01/21 12:50:26;;;;;;;;;;;;;;;7.39;66.64;97134.78;1741170;81;22135;-89
2021/01/21 12:53:12;;;;;;;;;;;;;;;7.47;66.62;97134.20;1724660;82;26222;-90
2021/01/21 12:56:01;;;;;;;;;;;;;;;7.50;66.62;97133.47;1740919;81;24888;-90
2021/01/21 12:58:47;;;;;;;;;;;;;;;7.54;66.59;97144.45;1741886;81;20278;-89
2021/01/21 13:01:34;;;;;;;;;;;;;;;7.54;66.53;97149.66;1715486;82;25125;-90
2021/01/21 13:04:21;;;;;;;;;;;;;;;7.52;66.48;97147.67;1735724;81;23344;-90
2021/01/21 13:07:06;;;;;;;;;;;;;;;7.49;66.41;97147.42;1790422;79;26097;-89
2021/01/21 13:09:52;;;;;;;;;;;;;;;7.55;66.37;97150.86;1783988;79;24626;-89
2021/01/21 13:12:39;;;;;;;;;;;;;;;7.52;66.33;97147.20;1790933;79;20258;-89
2021/01/21 13:15:26;;;;;;;;;;;;;;;7.54;66.29;97149.66;1786221;78;24207;-90
2021/01/21 13:18:12;;;;;;;;;;;;;;;7.48;66.24;97147.53;1797098;79;22257;-90
2021/01/21 13:20:59;;;;;;;;;;;;;;;7.53;66.21;97144.09;1788947;79;26196;-89
2021/01/21 13:23:45;;;;;;;;;;;;;;;7.50;66.15;97160.80;1789294;79;24795;-89
2021/01/21 13:26:31;;;;;;;;;;;;;;;7.49;66.11;97158.31;1783598;79;20565;-90
2021/01/21 13:29:17;;;;;;;;;;;;;;;7.46;66.08;97163.77;1801375;79;25824;-89
2021/01/21 13:32:05;;;;;;;;;;;;;;;7.49;66.05;97166.12;1785693;79;22885;-89
2021/01/21 13:34:51;;;;;;;;;;;;;;;7.43;66.04;97162.69;1785983;79;26083;-88
2021/01/21 13:37:40;;;;;;;;;;;;;;;7.42;66.01;97167.06;1786070;79;24618;-89
2021/01/21 13:40:30;;;;;;;;;;;;;;;7.46;65.98;97165.06;1739982;81;20611;-89
2021/01/21 13:43:16;;;;;;;;;;;;;;;7.46;65.96;97168.97;1725932;80;24898;-88
2021/01/21 13:46:05;;;;;;;;;;;;;;;7.43;65.91;97169.19;1797768;79;22375;-90
2021/01/21 13:48:51;;;;;;;;;;;;;;;7.38;65.89;97168.72;1730447;82;26134;-90
2021/01/21 13:51:38;;;;;;;;;;;;;;;7.33;65.86;97164.34;1729269;82;25622;-90
2021/01/21 13:54:24;;;;;;;;;;;;;;;7.41;65.83;97167.20;1716994;82;20295;-89
2021/01/21 13:57:10;;;;;;;;;;;;;;;7.45;65.78;97175.95;1739814;81;25053;-88
2021/01/21 13:59:56;;;;;;;;;;;;;;;7.44;65.77;97172.16;1784661;79;22059;-88
2021/01/21 14:02:42;;;;;;;;;;;;;;;7.41;65.75;97171.94;1788798;79;26207;-87
2021/01/21 14:05:28;;;;;;;;;;;;;;;7.44;65.73;97178.66;1794229;79;24757;-88
2021/01/21 14:08:16;;;;;;;;;;;;;;;7.44;65.70;97182.09;1780907;79;20514;-88
2021/01/21 14:11:02;;;;;;;;;;;;;;;7.42;65.63;97189.66;1748340;81;24747;-88
2021/01/21 14:13:51;;;;;;;;;;;;;;;7.40;65.61;97188.49;1710270;82;22164;-89
2021/01/21 14:16:37;;;;;;;;;;;;;;;7.34;65.59;97189.42;1726985;82;26147;-90
2021/01/21 14:19:23;;;;;;;;;;;;;;;7.18;65.55;97181.14;1717658;81;25558;-89
2021/01/21 14:22:10;;;;;;;;;;;;;;;7.17;65.51;97194.62;1744144;80;20569;-90
2021/01/21 14:24:55;;;;;;;;;;;;;;;7.10;65.48;97198.15;1748522;80;25124;-89
2021/01/21 14:27:42;;;;;;;;;;;;;;;7.11;65.47;97203.71;1720166;82;22884;-89
2021/01/21 14:30:31;;;;;;;;;;;;;;;7.10;65.45;97205.95;1743268;82;26090;-88
2021/01/21 14:33:17;;;;;;;;;;;;;;;7.07;65.43;97209.27;1745356;81;24044;-87
2021/01/21 14:36:03;;;;;;;;;;;;;;;7.06;65.42;97209.73;1711146;82;20361;-88
2021/01/21 14:38:50;;;;;;;;;;;;;;;7.07;65.40;97211.87;1713964;82;25778;-88